Time;durP1;ratioP1;P1;durP2;ratioP2;P2;SDS_P1;SDS_P2;PMS_P1;PMS_P2;Temp;Humidity;BMP_temperature;BMP_pressure;BME280_temperature;BME280_humidity;BME280_pressure;Samples;Min_cycle;Max_cycle;Signal;HPM_P1;HPM_P2
2022/04/26 03:38:29;;;;;;;11.15;4.70;;;;;;;7.73;81.96;101368.13;5023997;28;20134;-77
2022/04/26 03:40:57;;;;;;;7.20;4.82;;;;;;;7.73;81.41;101370.81;5032799;28;20486;-76
2022/04/26 03:43:22;;;;;;;8.15;4.95;;;;;;;7.67;81.75;101377.00;5032463;28;20137;-75
2022/04/26 03:45:48;;;;;;;8.13;5.10;;;;;;;7.70;82.51;101370.34;4997780;28;20065;-72
2022/04/26 03:48:14;;;;;;;8.73;4.85;;;;;;;7.69;81.96;101371.41;5021553;28;20033;-75
2022/04/26 03:50:39;;;;;;;8.70;4.82;;;;;;;7.70;83.10;101376.59;4994998;28;20033;-72
2022/04/26 03:53:04;;;;;;;8.52;5.50;;;;;;;7.72;82.92;101373.72;5018392;28;20045;-74
2022/04/26 03:55:30;;;;;;;7.88;5.30;;;;;;;7.73;82.57;101372.66;5032253;28;20033;-71
2022/04/26 03:57:57;;;;;;;8.50;5.30;;;;;;;7.72;83.24;101374.53;5031309;28;20033;-76
2022/04/26 04:00:22;;;;;;;8.63;5.50;;;;;;;7.73;82.60;101381.59;5027040;28;20033;-75
2022/04/26 04:02:48;;;;;;;9.15;5.35;;;;;;;7.67;82.70;101374.28;5011768;28;20037;-72
2022/04/26 04:05:13;;;;;;;7.25;5.20;;;;;;;7.74;83.25;101382.44;4995153;28;20046;-76
2022/04/26 04:07:38;;;;;;;9.85;5.40;;;;;;;7.76;83.09;101385.75;5016112;28;20036;-72
2022/04/26 04:10:04;;;;;;;9.43;5.55;;;;;;;7.70;82.63;101391.91;5014488;28;20394;-76
2022/04/26 04:12:29;;;;;;;7.22;5.22;;;;;;;7.72;83.52;101381.78;4997961;28;20033;-76
2022/04/26 04:14:54;;;;;;;9.52;5.20;;;;;;;7.66;83.21;101390.66;5014374;28;20038;-72
2022/04/26 04:17:20;;;;;;;9.98;5.03;;;;;;;7.69;83.71;101401.03;5012997;28;20041;-73
2022/04/26 04:19:45;;;;;;;8.18;5.40;;;;;;;7.68;83.58;101402.06;4996440;28;20037;-74
2022/04/26 04:22:10;;;;;;;7.65;5.53;;;;;;;7.62;83.48;101401.81;5012846;28;20026;-75
2022/04/26 04:24:36;;;;;;;10.05;5.50;;;;;;;7.62;84.56;101396.44;5030069;28;20072;-71
2022/04/26 04:27:01;;;;;;;9.07;5.95;;;;;;;7.61;84.16;101408.22;5014532;28;20029;-72
2022/04/26 04:29:26;;;;;;;12.55;6.13;;;;;;;7.64;84.54;101409.69;5014133;28;20030;-74
2022/04/26 04:31:52;;;;;;;7.70;5.38;;;;;;;7.67;83.66;101408.47;5015157;28;20038;-71
2022/04/26 04:34:17;;;;;;;10.27;6.10;;;;;;;7.65;84.21;101411.34;5012094;28;20032;-76
2022/04/26 04:36:42;;;;;;;9.63;5.82;;;;;;;7.69;84.09;101414.50;5012813;28;20401;-75
2022/04/26 04:39:08;;;;;;;9.45;5.93;;;;;;;7.71;84.21;101413.28;5010146;28;20044;-78
2022/04/26 04:41:36;;;;;;;15.13;5.82;;;;;;;7.72;84.46;101420.34;5014373;28;20029;-78
2022/04/26 04:44:03;;;;;;;8.90;5.90;;;;;;;7.69;83.85;101417.19;5014427;28;20091;-74
2022/04/26 04:46:28;;;;;;;10.10;5.60;;;;;;;7.68;84.09;101421.72;5014930;28;20116;-74
2022/04/26 04:48:54;;;;;;;11.77;6.40;;;;;;;7.66;84.00;101425.66;5007717;28;20055;-77
2022/04/26 04:51:19;;;;;;;9.63;5.60;;;;;;;7.67;84.61;101424.63;5014553;28;20040;-74
2022/04/26 04:53:44;;;;;;;11.95;5.63;;;;;;;7.67;84.95;101430.00;5013178;28;20029;-75
2022/04/26 04:56:10;;;;;;;10.13;5.72;;;;;;;7.64;84.29;101428.56;5030799;28;20046;-75
2022/04/26 04:58:36;;;;;;;8.23;5.72;;;;;;;7.70;84.78;101441.25;5001935;28;20038;-75
2022/04/26 05:01:01;;;;;;;11.95;6.28;;;;;;;7.69;84.20;101434.19;5020136;28;20029;-74
2022/04/26 05:03:26;;;;;;;10.32;6.15;;;;;;;7.67;84.50;101435.41;5035788;28;20063;-76
2022/04/26 05:05:51;;;;;;;12.60;6.60;;;;;;;7.70;84.56;101446.66;5015478;28;20082;-76
2022/04/26 05:08:16;;;;;;;8.35;5.72;;;;;;;7.74;84.60;101452.47;5034035;28;20029;-75
2022/04/26 05:10:42;;;;;;;10.23;5.95;;;;;;;7.76;84.49;101453.97;5017496;28;20041;-73
2022/04/26 05:13:08;;;;;;;11.70;6.13;;;;;;;7.76;84.02;101463.88;5024198;28;20106;-72
2022/04/26 05:15:34;;;;;;;11.13;6.28;;;;;;;7.77;84.60;101468.25;5017126;28;20037;-73
2022/04/26 05:17:59;;;;;;;7.35;5.72;;;;;;;7.74;84.66;101468.63;5015720;28;20030;-75
2022/04/26 05:20:24;;;;;;;9.18;5.68;;;;;;;7.71;84.65;101469.84;5015584;28;20485;-75
2022/04/26 05:25:37;;;;;;;13.45;5.95;;;;;;;7.67;85.01;101468.56;5028082;28;20045;-73
2022/04/26 05:28:03;;;;;;;11.77;6.18;;;;;;;7.63;84.97;101468.09;5003096;28;20124;-78
2022/04/26 05:30:28;;;;;;;10.68;6.25;;;;;;;7.65;85.13;101469.78;5014857;28;20053;-75
2022/04/26 05:32:54;;;;;;;9.85;6.13;;;;;;;7.65;84.96;101473.31;4995344;28;20042;-71
2022/04/26 05:35:22;;;;;;;12.55;6.18;;;;;;;7.65;85.17;101475.16;5041365;28;20029;-75
2022/04/26 05:37:48;;;;;;;11.98;6.35;;;;;;;7.66;85.95;101482.25;5028550;28;20029;-78
2022/04/26 05:40:17;;;;;;;10.93;6.72;;;;;;;7.68;85.43;101480.19;5052591;28;20111;-75
2022/04/26 05:42:42;;;;;;;11.43;6.65;;;;;;;7.71;85.65;101483.31;5023355;28;20087;-72
2022/04/26 05:45:07;;;;;;;11.73;6.00;;;;;;;7.74;85.83;101477.53;5016877;28;20029;-74
2022/04/26 05:47:33;;;;;;;10.02;6.35;;;;;;;7.75;85.50;101478.41;5009721;28;20037;-76
2022/04/26 05:49:59;;;;;;;14.23;6.70;;;;;;;7.76;85.59;101482.75;5027575;28;20424;-77
2022/04/26 05:52:24;;;;;;;10.35;6.45;;;;;;;7.78;85.59;101480.72;5016576;28;20068;-75
2022/04/26 05:54:50;;;;;;;9.93;6.30;;;;;;;7.76;85.56;101478.22;5007985;28;20079;-76
2022/04/26 05:57:16;;;;;;;12.57;6.93;;;;;;;7.81;86.14;101489.22;5023505;28;20041;-75
2022/04/26 05:59:41;;;;;;;9.68;6.60;;;;;;;7.81;85.88;101485.72;5014403;28;20045;-73
2022/04/26 06:02:06;;;;;;;9.70;6.90;;;;;;;7.83;85.70;101489.03;5012230;28;20118;-74
2022/04/26 06:04:31;;;;;;;10.68;6.40;;;;;;;7.89;85.46;101490.16;5019607;28;20038;-70
2022/04/26 06:06:57;;;;;;;11.07;6.93;;;;;;;7.90;85.79;101489.94;5002248;28;20034;-74
2022/04/26 06:09:22;;;;;;;11.52;7.07;;;;;;;7.88;85.44;101492.00;5021188;28;20109;-73
2022/04/26 06:11:52;;;;;;;12.02;6.88;;;;;;;7.91;85.66;101497.03;5005728;28;20441;-73
2022/04/26 06:14:17;;;;;;;12.18;7.20;;;;;;;7.90;86.17;101503.44;5016059;28;20036;-73
2022/04/26 06:16:43;;;;;;;14.65;7.07;;;;;;;7.91;85.88;101501.56;5008719;28;20025;-71
2022/04/26 06:19:08;;;;;;;11.68;7.30;;;;;;;7.97;86.36;101506.19;5032686;28;20075;-71
2022/04/26 06:21:33;;;;;;;12.85;7.38;;;;;;;7.98;85.55;101505.97;5016110;28;20559;-69
2022/04/26 06:23:58;;;;;;;12.15;7.15;;;;;;;7.98;85.96;101500.59;5033854;28;20033;-71
2022/04/26 06:26:24;;;;;;;12.73;7.35;;;;;;;8.05;85.66;101502.56;5033704;28;20025;-73
2022/04/26 06:28:49;;;;;;;10.73;7.60;;;;;;;8.07;85.93;101516.66;5016144;28;20027;-73
2022/04/26 06:31:14;;;;;;;13.15;7.20;;;;;;;8.09;86.09;101517.28;5033872;28;20034;-73
2022/04/26 06:33:39;;;;;;;10.70;7.57;;;;;;;8.12;85.85;101519.59;5022140;28;20118;-74
2022/04/26 06:36:06;;;;;;;14.50;8.02;;;;;;;8.14;85.48;101517.56;5013885;28;20374;-74
2022/04/26 06:38:31;;;;;;;12.90;8.32;;;;;;;8.15;86.31;101520.06;4996342;28;20500;-75
2022/04/26 06:40:56;;;;;;;12.38;7.65;;;;;;;8.19;85.53;101528.59;5013379;28;20034;-72
2022/04/26 06:43:22;;;;;;;19.92;8.88;;;;;;;8.18;86.18;101524.22;5014340;28;20037;-76
2022/04/26 06:45:47;;;;;;;13.68;7.97;;;;;;;8.21;85.19;101528.41;5014116;28;20030;-73
2022/04/26 06:48:14;;;;;;;15.40;8.15;;;;;;;8.22;85.08;101530.09;4996292;28;20033;-76
2022/04/26 06:50:40;;;;;;;15.35;8.45;;;;;;;8.27;85.91;101538.41;5029625;28;20038;-74
2022/04/26 06:53:06;;;;;;;16.35;8.60;;;;;;;8.25;84.70;101530.50;5015800;28;20048;-74
2022/04/26 06:55:32;;;;;;;13.90;8.85;;;;;;;8.22;85.30;101536.28;5033297;28;20038;-74
2022/04/26 06:57:57;;;;;;;14.10;9.20;;;;;;;8.27;85.18;101539.28;5033297;28;20044;-76
2022/04/26 07:00:23;;;;;;;18.30;9.70;;;;;;;8.30;84.53;101543.41;5029951;28;20041;-72
2022/04/26 07:02:49;;;;;;;16.58;9.27;;;;;;;8.33;84.81;101535.78;5010427;28;20397;-76
2022/04/26 07:05:15;;;;;;;13.35;9.23;;;;;;;8.38;85.00;101537.06;5017801;28;20109;-73
2022/04/26 07:07:41;;;;;;;13.60;9.18;;;;;;;8.49;84.91;101541.97;5012610;28;20057;-73
2022/04/26 07:10:07;;;;;;;20.50;9.55;;;;;;;8.58;84.32;101540.81;5013116;28;20058;-74
2022/04/26 07:12:33;;;;;;;14.15;9.45;;;;;;;8.65;84.36;101540.84;5012747;28;20033;-72
2022/04/26 07:14:58;;;;;;;13.63;9.18;;;;;;;8.74;83.33;101536.16;5013362;28;20033;-71
2022/04/26 07:17:24;;;;;;;16.10;9.88;;;;;;;8.88;84.12;101543.31;5013379;28;20049;-73
2022/04/26 07:19:49;;;;;;;16.70;9.07;;;;;;;8.92;83.28;101543.75;5009052;28;20038;-75
2022/04/26 07:22:15;;;;;;;13.95;8.90;;;;;;;8.92;82.85;101536.47;5032840;28;20036;-73
2022/04/26 07:24:40;;;;;;;12.35;8.90;;;;;;;8.90;81.71;101546.66;5032794;28;20040;-73
2022/04/26 07:27:05;;;;;;;12.90;8.77;;;;;;;8.92;82.34;101547.28;5033014;28;20029;-76
2022/04/26 07:29:31;;;;;;;14.45;8.50;;;;;;;8.96;81.66;101553.97;5032848;28;20033;-73
2022/04/26 07:31:56;;;;;;;12.63;8.18;;;;;;;8.97;79.55;101557.50;5015438;28;20034;-75
2022/04/26 07:34:21;;;;;;;14.52;8.90;;;;;;;8.89;80.54;101553.06;5032080;28;20480;-78
2022/04/26 07:36:48;;;;;;;15.88;8.80;;;;;;;8.94;80.74;101560.63;5030006;28;20095;-73
2022/04/26 07:39:14;;;;;;;11.18;8.25;;;;;;;8.98;80.84;101560.03;5028150;28;20056;-74
2022/04/26 07:41:40;;;;;;;15.77;8.82;;;;;;;9.09;81.22;101568.56;5014439;28;20029;-74
2022/04/26 07:44:05;;;;;;;14.48;8.00;;;;;;;9.18;80.13;101556.63;5032254;28;20524;-73
2022/04/26 07:46:30;;;;;;;14.13;7.75;;;;;;;9.22;79.04;101566.81;5031909;28;20037;-72
2022/04/26 07:48:55;;;;;;;9.40;7.40;;;;;;;9.25;77.85;101562.88;5032214;28;20124;-71
2022/04/26 07:51:21;;;;;;;15.65;7.75;;;;;;;9.31;78.19;101572.88;5014756;28;20029;-71
2022/04/26 07:53:47;;;;;;;16.00;8.23;;;;;;;9.37;78.90;101573.94;5018046;28;20041;-73
2022/04/26 07:56:12;;;;;;;14.23;8.02;;;;;;;9.43;78.43;101580.44;5012582;28;20029;-72
2022/04/26 07:58:38;;;;;;;17.23;8.80;;;;;;;9.47;78.95;101573.59;5020215;28;20030;-72
2022/04/26 08:01:04;;;;;;;13.70;8.23;;;;;;;9.53;79.37;101580.91;5013738;28;20038;-71
2022/04/26 08:03:32;;;;;;;13.30;8.18;;;;;;;9.53;78.67;101578.22;4994671;28;20125;-72
2022/04/26 08:05:57;;;;;;;18.95;9.18;;;;;;;9.58;77.79;101575.72;5012404;28;20026;-71
2022/04/26 08:08:22;;;;;;;13.93;8.15;;;;;;;9.59;77.37;101580.09;5012186;28;20085;-73
2022/04/26 08:10:47;;;;;;;13.23;7.65;;;;;;;9.59;77.62;101590.91;5027732;28;20119;-72
2022/04/26 08:13:13;;;;;;;14.73;7.65;;;;;;;9.61;77.57;101594.25;5032175;28;20056;-72
2022/04/26 08:15:39;;;;;;;15.68;7.90;;;;;;;9.65;77.34;101600.09;5031437;28;20045;-71
2022/04/26 08:18:05;;;;;;;15.70;7.38;;;;;;;9.73;77.13;101602.63;5032159;28;20041;-72
2022/04/26 08:20:30;;;;;;;12.57;6.57;;;;;;;9.73;75.40;101605.31;5031772;28;20208;-72
2022/04/26 08:22:56;;;;;;;14.38;6.85;;;;;;;9.83;76.50;101611.19;5032013;28;20585;-72
2022/04/26 08:28:05;;;;;;;11.48;7.20;;;;;;;9.95;76.59;101614.16;5011739;28;20120;-72
2022/04/26 08:30:30;;;;;;;11.65;7.10;;;;;;;9.97;75.87;101617.47;5012192;28;20105;-73
2022/04/26 08:32:56;;;;;;;15.45;7.40;;;;;;;10.00;75.69;101617.06;5012015;28;20033;-75
2022/04/26 08:35:24;;;;;;;15.68;7.90;;;;;;;10.07;76.78;101620.66;5014476;28;20516;-71
2022/04/26 08:37:50;;;;;;;13.68;7.38;;;;;;;10.12;76.09;101628.16;5015879;28;20507;-72
2022/04/26 08:40:15;;;;;;;12.13;7.18;;;;;;;10.12;75.91;101628.16;5031250;28;20029;-72
2022/04/26 08:42:43;;;;;;;11.15;6.45;;;;;;;10.12;75.87;101625.44;5035864;28;20178;-74
2022/04/26 08:45:14;;;;;;;10.90;6.45;;;;;;;10.14;74.36;101634.19;5035887;28;20030;-72
2022/04/26 08:53:09;;;;;;;11.75;6.25;;;;;;;10.01;74.24;101632.28;5034985;28;20129;-73
2022/04/26 08:55:42;;;;;;;12.35;6.20;;;;;;;10.07;74.82;101631.47;5015591;28;20121;-74
2022/04/26 08:58:10;;;;;;;10.25;6.07;;;;;;;10.15;74.52;101643.97;5015871;28;20524;-73
2022/04/26 09:00:36;;;;;;;13.70;5.78;;;;;;;10.21;75.23;101640.44;5013176;28;20057;-72
2022/04/26 09:03:04;;;;;;;12.82;6.32;;;;;;;10.24;72.85;101641.91;5015758;28;20038;-73
2022/04/26 09:05:30;;;;;;;16.75;6.05;;;;;;;10.23;73.27;101638.38;5015581;28;20049;-71
2022/04/26 09:07:56;;;;;;;13.63;6.25;;;;;;;10.31;74.04;101645.50;5015393;28;20025;-70
2022/04/26 09:10:22;;;;;;;14.95;5.65;;;;;;;10.39;73.88;101633.69;4997539;28;20188;-71
2022/04/26 09:13:07;;;;;;;12.18;5.68;;;;;;;10.46;72.70;101638.06;5015486;28;20033;-72
2022/04/26 09:15:57;;;;;;;11.35;5.40;;;;;;;10.60;73.30;101643.50;5015705;28;20466;-75
2022/04/26 09:18:27;;;;;;;11.77;6.20;;;;;;;10.70;70.25;101654.75;5015716;28;20045;-75
2022/04/26 09:20:55;;;;;;;10.55;5.15;;;;;;;10.72;69.55;101644.56;5034050;28;20109;-71
2022/04/26 09:23:25;;;;;;;9.07;4.90;;;;;;;10.81;68.91;101654.16;5035255;28;20121;-71
2022/04/26 09:26:06;;;;;;;10.43;5.15;;;;;;;10.82;69.21;101645.00;5017120;28;20112;-72
2022/04/26 09:28:32;;;;;;;10.32;5.53;;;;;;;10.91;69.23;101651.00;5035232;28;20082;-72
2022/04/26 09:30:57;;;;;;;13.23;5.45;;;;;;;11.01;68.20;101647.09;5034644;28;20025;-71
2022/04/26 09:33:47;;;;;;;7.82;4.57;;;;;;;11.02;67.47;101655.00;5034891;28;20084;-73
2022/04/26 09:36:13;;;;;;;7.47;4.90;;;;;;;11.10;68.17;101662.91;5022533;28;20030;-73
2022/04/26 09:38:41;;;;;;;8.50;4.30;;;;;;;11.14;66.04;101656.03;4997580;28;20030;-74
2022/04/26 09:41:11;;;;;;;13.05;5.18;;;;;;;11.13;63.65;101662.47;5015140;28;20029;-72
2022/04/26 09:43:38;;;;;;;8.85;4.40;;;;;;;11.13;63.47;101673.31;5014417;28;20488;-74
2022/04/26 09:46:04;;;;;;;8.50;4.65;;;;;;;11.20;63.02;101670.59;5014580;28;20033;-72
2022/04/26 09:48:35;;;;;;;8.35;4.53;;;;;;;11.29;64.01;101687.47;5015051;28;20099;-71
2022/04/26 09:51:03;;;;;;;11.65;4.65;;;;;;;11.29;61.83;101682.06;5027706;28;20065;-78
2022/04/26 09:53:29;;;;;;;8.73;4.47;;;;;;;11.31;62.22;101671.88;5016495;28;20507;-72
2022/04/26 09:55:59;;;;;;;9.80;4.10;;;;;;;11.32;62.11;101668.94;5034475;28;20026;-73
2022/04/26 09:58:27;;;;;;;7.38;4.25;;;;;;;11.46;61.73;101677.88;5038594;28;20530;-73
2022/04/26 10:00:54;;;;;;;7.70;4.40;;;;;;;11.56;60.33;101687.47;5051716;28;20094;-71
2022/04/26 10:03:28;;;;;;;8.25;4.25;;;;;;;11.61;61.31;101682.22;5036675;28;20034;-72
2022/04/26 10:05:59;;;;;;;11.40;4.55;;;;;;;11.68;62.21;101688.47;5039340;28;20071;-71
2022/04/26 10:08:27;;;;;;;13.02;5.10;;;;;;;11.67;61.69;101689.50;5053818;28;20037;-72
2022/04/26 10:10:54;;;;;;;11.43;4.60;;;;;;;11.64;63.21;101684.50;5053512;28;20049;-72
2022/04/26 10:13:42;;;;;;;8.82;4.80;;;;;;;11.68;63.34;101694.75;5053910;28;20036;-72
2022/04/26 10:16:15;;;;;;;7.13;4.20;;;;;;;11.81;63.79;101691.16;5053888;28;20035;-72
2022/04/26 10:18:45;;;;;;;7.72;4.90;;;;;;;11.89;62.32;101698.22;5053871;28;20100;-72
2022/04/26 10:21:23;;;;;;;11.07;4.22;;;;;;;11.93;62.06;101701.41;4998785;28;20034;-73
2022/04/26 10:23:51;;;;;;;9.00;4.03;;;;;;;11.93;60.41;101707.66;5013780;28;20034;-73
2022/04/26 10:26:23;;;;;;;9.60;4.47;;;;;;;11.95;61.00;101699.28;5014145;28;20034;-72
2022/04/26 10:28:53;;;;;;;;;;;;;;;12.09;63.03;101711.75;5014292;28;20490;-72
2022/04/26 10:31:20;;;;;;;8.45;4.30;;;;;;;12.12;59.10;101713.22;5014325;28;19972;-73
2022/04/26 10:33:46;;;;;;;8.38;4.45;;;;;;;12.14;58.95;101711.97;5013765;28;20034;-72
2022/04/26 10:36:27;;;;;;;9.38;4.60;;;;;;;12.17;58.90;101706.09;5029532;28;20071;-71
2022/04/26 10:39:07;;;;;;;8.55;4.28;;;;;;;12.32;57.97;101713.13;5033764;28;20033;-72
2022/04/26 10:41:43;;;;;;;8.75;4.18;;;;;;;12.34;56.84;101716.47;5026091;28;20030;-71
2022/04/26 10:44:15;;;;;;;7.38;4.30;;;;;;;12.38;57.26;101718.53;5033484;28;20031;-72
2022/04/26 10:46:54;;;;;;;11.52;4.60;;;;;;;12.37;57.26;101721.47;5033269;28;20021;-72
2022/04/26 10:49:23;;;;;;;7.03;3.70;;;;;;;12.37;56.84;101730.44;5033820;28;20036;-72
2022/04/26 10:51:51;;;;;;;5.55;4.15;;;;;;;12.41;56.01;101725.44;5033149;28;20052;-71
2022/04/26 10:54:46;;;;;;;8.75;4.47;;;;;;;12.58;57.35;101723.88;5031610;28;20033;-74
2022/04/26 10:57:12;;;;;;;6.35;4.40;;;;;;;12.75;54.96;101723.34;5012730;28;20384;-72
2022/04/26 10:59:41;;;;;;;10.77;4.10;;;;;;;12.88;55.83;101717.03;5033439;28;20059;-71
2022/04/26 11:02:12;;;;;;;9.77;3.75;;;;;;;12.98;55.51;101722.78;5030912;28;20029;-72
2022/04/26 11:04:37;;;;;;;6.82;3.90;;;;;;;12.88;52.61;101717.03;4999647;28;20358;-70
2022/04/26 11:07:18;;;;;;;7.00;4.13;;;;;;;12.79;54.54;101721.03;5013058;28;20041;-71
2022/04/26 11:09:53;;;;;;;7.22;4.22;;;;;;;12.76;53.93;101719.59;5012928;28;20540;-78
2022/04/26 11:12:27;;;;;;;10.10;4.43;;;;;;;12.81;53.84;101722.47;5013167;28;20104;-80
2022/04/26 11:14:56;;;;;;;9.02;4.30;;;;;;;12.85;53.72;101718.28;5013293;28;20017;-73
2022/04/26 11:17:22;;;;;;;7.32;4.07;;;;;;;12.88;53.33;101717.84;5013813;28;20072;-76
2022/04/26 11:19:55;;;;;;;8.15;4.20;;;;;;;13.11;54.73;101719.16;5014619;28;20021;-73
2022/04/26 11:22:22;;;;;;;8.70;4.35;;;;;;;13.18;52.83;101719.94;5032885;28;20481;-71
2022/04/26 11:30:31;;;;;;;5.97;4.28;;;;;;;13.29;52.63;101716.50;5032884;28;20100;-71
2022/04/26 11:33:01;;;;;;;7.75;4.63;;;;;;;13.24;50.53;101716.34;5032593;28;20480;-73
2022/04/26 11:35:27;;;;;;;7.78;4.43;;;;;;;13.35;50.64;101716.72;5023441;28;20034;-75
2022/04/26 11:37:55;;;;;;;8.38;4.45;;;;;;;13.35;50.55;101722.16;4995257;28;20041;-72
2022/04/26 11:40:30;;;;;;;6.85;4.25;;;;;;;13.45;51.63;101711.56;5013185;28;20065;-77
2022/04/26 11:42:58;;;;;;;5.35;4.47;;;;;;;13.46;50.81;101718.69;4995084;28;20025;-70
2022/04/26 11:45:28;;;;;;;7.00;4.28;;;;;;;13.38;47.93;101727.13;5012509;28;20042;-74
2022/04/26 11:47:55;;;;;;;8.15;4.22;;;;;;;13.35;48.90;101730.28;5013398;28;20030;-73
2022/04/26 11:50:28;;;;;;;5.75;4.13;;;;;;;13.43;49.83;101730.00;5026769;28;20049;-73
2022/04/26 11:53:00;;;;;;;8.98;4.50;;;;;;;13.60;50.44;101730.25;4997936;28;20092;-72
2022/04/26 11:55:29;;;;;;;5.40;4.45;;;;;;;13.73;51.01;101721.97;5016771;28;20034;-71
2022/04/26 11:58:14;;;;;;;7.47;4.65;;;;;;;13.94;51.12;101730.78;5026737;28;20045;-79
2022/04/26 12:00:54;;;;;;;8.98;4.15;;;;;;;14.06;49.46;101730.88;5011624;28;20040;-75
2022/04/26 12:03:22;;;;;;;8.52;4.85;;;;;;;14.20;48.18;101739.69;5012675;28;20044;-74
2022/04/26 12:05:54;;;;;;;6.75;4.50;;;;;;;14.12;48.16;101729.94;5012193;28;20457;-75
2022/04/26 12:08:21;;;;;;;8.68;4.50;;;;;;;14.08;47.33;101742.34;5013260;28;20030;-73
2022/04/26 12:10:47;;;;;;;8.43;4.43;;;;;;;14.13;48.51;101737.03;4998921;28;20053;-76
2022/04/26 12:13:13;;;;;;;5.90;4.20;;;;;;;14.15;46.59;101737.66;5016984;28;20026;-73
2022/04/26 12:15:39;;;;;;;5.68;4.20;;;;;;;14.21;45.84;101744.91;5032938;28;20112;-74
2022/04/26 12:18:14;;;;;;;6.00;4.20;;;;;;;14.26;46.72;101736.88;5036319;28;20190;-72
2022/04/26 12:21:00;;;;;;;5.93;3.88;;;;;;;14.32;47.34;101733.25;5036417;28;20029;-72
2022/04/26 12:23:27;;;;;;;5.45;3.83;;;;;;;14.41;44.91;101735.69;5035987;28;20021;-73
2022/04/26 12:26:04;;;;;;;6.78;4.07;;;;;;;14.54;47.66;101724.63;5035775;28;20021;-73
2022/04/26 12:28:30;;;;;;;7.20;3.67;;;;;;;14.62;44.46;101743.38;5035139;28;20079;-75
2022/04/26 12:30:55;;;;;;;8.38;4.03;;;;;;;14.64;44.64;101734.97;5016301;28;20018;-73
2022/04/26 12:33:30;;;;;;;8.20;3.50;;;;;;;14.57;43.97;101745.09;5016212;28;20029;-72
2022/04/26 12:35:58;;;;;;;5.65;3.90;;;;;;;14.35;43.71;101742.84;5015842;28;20030;-76
2022/04/26 12:38:23;;;;;;;7.95;3.88;;;;;;;14.24;44.24;101732.75;5016044;28;20045;-72
2022/04/26 12:41:00;;;;;;;8.13;4.00;;;;;;;14.23;45.44;101745.50;5015879;28;20410;-73
2022/04/26 12:43:28;;;;;;;5.40;3.80;;;;;;;14.25;45.35;101737.97;5015797;28;20473;-73
2022/04/26 12:45:58;;;;;;;7.03;4.00;;;;;;;14.24;45.06;101746.34;5029542;28;20511;-73
2022/04/26 12:51:28;;;;;;;7.82;4.10;;;;;;;14.31;45.00;101747.09;5035556;28;20052;-76
2022/04/26 12:54:08;;;;;;;8.77;4.25;;;;;;;14.14;44.92;101730.53;5035032;28;20493;-72
2022/04/26 12:56:33;;;;;;;10.60;4.30;;;;;;;14.08;46.46;101736.91;5035753;28;20067;-75
2022/04/26 12:58:59;;;;;;;10.38;5.43;;;;;;;14.22;48.11;101730.25;5035255;28;20108;-74
2022/04/26 13:01:24;;;;;;;10.55;4.68;;;;;;;14.37;47.23;101735.28;5028909;28;20385;-75
2022/04/26 13:03:50;;;;;;;8.32;4.65;;;;;;;14.48;47.28;101730.97;5015614;28;20077;-73
2022/04/26 13:06:18;;;;;;;8.27;4.80;;;;;;;14.47;47.98;101737.47;5015732;28;20454;-73
2022/04/26 13:08:46;;;;;;;6.57;4.35;;;;;;;14.50;48.28;101734.28;5015636;28;20034;-73
2022/04/26 13:11:12;;;;;;;7.22;4.57;;;;;;;14.49;47.26;101740.78;5014997;28;20497;-75
2022/04/26 13:13:41;;;;;;;7.80;4.50;;;;;;;14.38;45.98;101726.06;5026339;28;20072;-72
2022/04/26 13:16:07;;;;;;;8.10;4.50;;;;;;;14.39;46.68;101744.06;5031398;28;20128;-73
2022/04/26 13:18:33;;;;;;;8.27;4.32;;;;;;;14.38;46.18;101736.94;5035074;28;20124;-73
2022/04/26 13:20:59;;;;;;;6.32;4.30;;;;;;;14.42;46.96;101731.88;5040603;28;20609;-72
2022/04/26 13:23:25;;;;;;;8.88;4.25;;;;;;;14.46;46.72;101739.38;5054933;28;20028;-72
2022/04/26 13:25:52;;;;;;;10.25;4.38;;;;;;;14.57;47.40;101732.31;5036596;28;20048;-73
2022/04/26 13:28:18;;;;;;;10.45;4.40;;;;;;;14.65;46.30;101728.47;5036886;28;20037;-72
2022/04/26 13:30:43;;;;;;;7.13;4.30;;;;;;;14.96;47.39;101732.84;5051112;28;20084;-73
2022/04/26 13:33:08;;;;;;;9.68;4.18;;;;;;;15.18;46.57;101730.38;5040692;28;20452;-73
2022/04/26 13:35:37;;;;;;;5.20;4.13;;;;;;;15.21;45.36;101723.66;5015216;28;20113;-73
2022/04/26 13:38:06;;;;;;;6.50;4.45;;;;;;;15.37;46.54;101728.41;5029006;28;20103;-73
2022/04/26 13:40:31;;;;;;;6.63;4.00;;;;;;;15.36;46.02;101737.66;5034400;28;20026;-73
2022/04/26 13:42:56;;;;;;;6.88;3.95;;;;;;;15.16;45.48;101737.16;5016710;28;20038;-73
2022/04/26 13:45:22;;;;;;;9.27;4.68;;;;;;;14.81;45.46;101736.00;5034288;28;20068;-73
2022/04/26 13:47:47;;;;;;;6.80;4.18;;;;;;;14.67;46.19;101738.09;5034901;28;20489;-73
2022/04/26 13:50:13;;;;;;;7.00;3.92;;;;;;;14.74;46.58;101743.44;5034411;28;20033;-73
2022/04/26 13:52:41;;;;;;;6.57;3.85;;;;;;;14.66;47.06;101750.03;5021674;28;20072;-73
2022/04/26 13:55:06;;;;;;;6.78;3.92;;;;;;;14.48;45.63;101752.78;5014339;28;20117;-73
2022/04/26 13:57:32;;;;;;;4.40;3.65;;;;;;;14.56;46.66;101740.72;4997137;28;20113;-73
2022/04/26 13:59:57;;;;;;;7.43;3.65;;;;;;;14.52;45.82;101743.06;5014417;28;20350;-73
2022/04/26 14:02:22;;;;;;;9.25;3.97;;;;;;;14.41;46.00;101746.56;5012021;28;20392;-72
2022/04/26 14:04:48;;;;;;;7.70;3.90;;;;;;;14.39;45.94;101745.94;4996805;28;20049;-73
2022/04/26 14:07:14;;;;;;;6.45;4.00;;;;;;;14.23;45.48;101745.50;5026097;28;20374;-74
2022/04/26 14:09:39;;;;;;;5.65;3.72;;;;;;;14.26;45.36;101749.69;5034307;28;20037;-76
2022/04/26 14:12:07;;;;;;;7.97;3.65;;;;;;;14.11;46.14;101741.88;5016350;28;20054;-76
2022/04/26 14:22:46;;;;;;;5.47;3.20;;;;;;;14.16;44.44;101755.63;5015519;28;20052;-77
2022/04/26 14:25:12;;;;;;;5.78;3.25;;;;;;;14.05;44.12;101753.69;4997126;28;20030;-77
2022/04/26 14:27:39;;;;;;;8.95;3.50;;;;;;;14.02;44.57;101748.69;4997135;28;20036;-76
2022/04/26 14:30:12;;;;;;;6.28;3.58;;;;;;;14.05;45.13;101759.94;4996754;28;20111;-76
2022/04/26 14:32:37;;;;;;;6.97;3.20;;;;;;;13.98;44.54;101762.75;4995862;28;20026;-76
2022/04/26 14:35:03;;;;;;;11.38;3.30;;;;;;;13.90;44.76;101752.16;4996592;28;20033;-76
2022/04/26 14:37:29;;;;;;;8.93;3.30;;;;;;;13.94;45.26;101758.81;5014865;28;20489;-76
2022/04/26 14:39:55;;;;;;;3.90;3.47;;;;;;;14.03;46.00;101762.06;5034575;28;20044;-79
2022/04/26 14:42:23;;;;;;;5.90;3.38;;;;;;;13.96;45.13;101758.59;5034787;28;20064;-81
2022/04/26 14:44:49;;;;;;;6.22;3.92;;;;;;;13.95;44.71;101759.63;5017292;28;20033;-77
2022/04/26 14:47:15;;;;;;;9.48;3.72;;;;;;;13.93;46.34;101757.13;5016007;28;20467;-74
2022/04/26 14:49:41;;;;;;;6.50;3.50;;;;;;;13.97;46.58;101757.53;5034403;28;20116;-80
2022/04/26 14:52:07;;;;;;;5.95;3.60;;;;;;;13.94;45.79;101758.81;5015119;28;20061;-80
2022/04/26 14:54:33;;;;;;;9.43;4.00;;;;;;;13.95;46.77;101763.19;5016916;28;20080;-81
2022/04/26 14:56:58;;;;;;;6.63;3.50;;;;;;;13.90;45.33;101771.19;5016105;28;20487;-79
2022/04/26 14:59:25;;;;;;;9.57;3.80;;;;;;;13.87;46.64;101762.66;5033949;28;20045;-76
2022/04/26 15:01:51;;;;;;;5.40;3.50;;;;;;;13.82;46.18;101769.59;5031262;28;20123;-76
2022/04/26 15:04:17;;;;;;;4.75;3.30;;;;;;;13.79;45.79;101769.22;5033128;28;20056;-74
2022/04/26 15:06:46;;;;;;;5.93;3.45;;;;;;;13.73;45.44;101767.41;5033466;28;20436;-76
2022/04/26 15:17:25;;;;;;;6.60;3.50;;;;;;;14.39;45.04;101762.28;5013154;28;20125;-71
2022/04/26 15:19:51;;;;;;;5.57;3.35;;;;;;;15.18;43.71;101756.84;5013199;28;20555;-71
2022/04/26 15:22:19;;;;;;;5.30;3.15;;;;;;;15.90;42.03;101764.88;5018759;28;20101;-74
2022/04/26 15:24:49;;;;;;;5.90;3.25;;;;;;;16.33;41.21;101761.97;5014260;28;20458;-70
2022/04/26 15:27:18;;;;;;;5.38;2.85;;;;;;;16.21;38.58;101760.06;5031903;28;20030;-72
2022/04/26 15:29:44;;;;;;;6.10;2.63;;;;;;;16.19;38.44;101769.59;5032779;28;20041;-76
2022/04/26 15:32:11;;;;;;;4.97;2.80;;;;;;;16.60;38.07;101762.22;5013946;28;20049;-73
2022/04/26 15:34:36;;;;;;;5.47;2.72;;;;;;;16.68;37.75;101759.09;5032906;28;20100;-75
2022/04/26 15:37:03;;;;;;;8.90;2.60;;;;;;;16.99;37.12;101757.81;5032015;28;20032;-76
2022/04/26 15:39:28;;;;;;;3.85;2.53;;;;;;;17.33;37.50;101759.75;5042977;28;20495;-76